Time;durP1;ratioP1;P1;durP2;ratioP2;P2;SDS_P1;SDS_P2;PMS_P1;PMS_P2;Temp;Humidity;BMP_temperature;BMP_pressure;BME280_temperature;BME280_humidity;BME280_pressure;Samples;Min_cycle;Max_cycle;Signal;HPM_P1;HPM_P2
2023/07/18 00:00:40;;;;;;;;;42.00;37.75;;;;;20.03;61.46;102037.72;5104624;27;45329;-73
2023/07/18 00:03:05;;;;;;;;;49.00;42.75;;;;;19.98;61.43;102042.56;5102430;27;45420;-73
2023/07/18 00:05:33;;;;;;;;;48.25;42.50;;;;;19.96;61.28;102041.78;5116319;27;45184;-73
2023/07/18 00:07:58;;;;;;;;;69.00;59.00;;;;;19.82;60.37;102015.00;5106206;27;45594;-73
2023/07/18 00:10:27;;;;;;;;;48.75;42.50;;;;;19.88;61.03;102038.75;5109475;27;45375;-73
2023/07/18 00:12:52;;;;;;;;;56.60;47.80;;;;;19.87;62.45;102038.84;5088077;27;45799;-73
2023/07/18 00:15:17;;;;;;;;;56.50;48.00;;;;;19.83;62.45;102030.13;5097456;27;45661;-73
2023/07/18 00:17:43;;;;;;;;;60.25;50.25;;;;;19.79;62.60;102034.00;5103584;27;45567;-73
2023/07/18 00:20:17;;;;;;;;;69.75;57.75;;;;;19.77;62.00;102036.78;5103457;27;45613;-73
2023/07/18 00:22:43;;;;;;;;;58.00;48.50;;;;;19.72;61.93;102024.63;5118533;27;45476;-73
2023/07/18 00:25:13;;;;;;;;;39.00;36.00;;;;;19.70;61.36;102034.56;5105117;27;45375;-73
2023/07/18 00:27:40;;;;;;;;;57.75;48.75;;;;;19.68;62.66;102033.84;5102912;27;45419;-73
2023/07/18 00:30:12;;;;;;;;;54.50;46.50;;;;;19.67;61.81;102032.09;5117341;27;45305;-73
2023/07/18 00:32:38;;;;;;;;;50.33;43.67;;;;;19.62;62.78;102019.00;5103251;27;45436;-73
2023/07/18 00:35:04;;;;;;;;;32.50;31.50;;;;;19.62;62.38;102020.81;5104803;27;45377;-73
2023/07/18 00:37:30;;;;;;;;;41.00;36.75;;;;;19.54;62.92;102020.44;5101344;27;45254;-73
2023/07/18 00:39:55;;;;;;;;;58.50;49.00;;;;;19.56;62.33;102022.09;5104521;27;46737;-73
2023/07/18 00:42:20;;;;;;;;;65.67;54.67;;;;;19.53;62.95;102021.44;5103322;27;45278;-73
2023/07/18 00:44:50;;;;;;;;;59.67;50.33;;;;;19.48;63.70;102021.72;5113140;27;45765;-73
2023/07/18 00:47:16;;;;;;;;;57.75;48.50;;;;;19.45;62.76;102019.22;5123247;27;45187;-73
2023/07/18 00:49:42;;;;;;;;;55.25;46.75;;;;;19.34;62.67;101997.56;5120785;27;45268;-73
2023/07/18 00:52:08;;;;;;;;;61.75;51.25;;;;;19.37;62.58;102009.94;5110081;27;45227;-73
2023/07/18 00:54:34;;;;;;;;;58.33;48.67;;;;;19.27;64.17;101996.25;5102302;27;45425;-73
2023/07/18 00:56:59;;;;;;;;;44.25;39.50;;;;;19.36;64.13;102005.53;5107834;27;45505;-73
2023/07/18 00:59:27;;;;;;;;;58.75;48.75;;;;;19.32;63.36;102012.03;5109743;27;46037;-73
2023/07/18 01:01:53;;;;;;;;;48.33;42.00;;;;;19.27;64.27;102008.81;5098317;27;45265;-73
2023/07/18 01:04:19;;;;;;;;;42.00;37.00;;;;;19.20;64.78;102001.16;5102219;27;45234;-73
2023/07/18 01:06:46;;;;;;;;;56.00;47.50;;;;;19.21;63.94;102008.22;5104206;27;45274;-73
2023/07/18 01:09:11;;;;;;;;;55.00;46.25;;;;;19.21;64.57;102007.34;5107265;27;46154;-73
2023/07/18 01:11:37;;;;;;;;;62.33;51.33;;;;;19.16;65.46;102006.78;5103595;27;45567;-73
2023/07/18 01:14:03;;;;;;;;;53.50;45.75;;;;;19.11;65.23;102000.84;5105068;27;45346;-73
2023/07/18 01:16:29;;;;;;;;;61.00;50.80;;;;;19.06;64.41;101997.63;5121260;27;45583;-73
2023/07/18 01:18:54;;;;;;;;;57.50;48.00;;;;;19.07;64.56;101994.84;5107281;27;45409;-73
2023/07/18 01:21:20;;;;;;;;;54.50;46.25;;;;;19.08;65.04;102001.03;5096594;27;45357;-73
2023/07/18 01:23:46;;;;;;;;;55.60;46.60;;;;;18.99;64.78;101981.06;5102378;27;45333;-73
2023/07/18 01:26:12;;;;;;;;;61.67;50.67;;;;;19.03;64.53;101993.31;5083684;27;45741;-73
2023/07/18 01:28:38;;;;;;;;;57.33;48.00;;;;;19.02;65.17;101994.25;5108420;27;45304;-73
2023/07/18 01:31:03;;;;;;;;;56.75;47.25;;;;;18.98;65.43;102000.78;5095469;27;45958;-73
2023/07/18 01:33:29;;;;;;;;;56.25;47.25;;;;;18.94;65.13;101991.22;5114721;27;45375;-73
2023/07/18 01:35:54;;;;;;;;;56.00;47.50;;;;;18.92;64.97;101993.13;5096135;27;45401;-73
2023/07/18 01:38:20;;;;;;;;;60.50;50.25;;;;;18.80;65.21;101976.94;5114171;27;45331;-73
2023/07/18 01:40:45;;;;;;;;;59.25;48.25;;;;;18.91;65.94;101995.91;5111658;27;45241;-73
2023/07/18 01:43:12;;;;;;;;;51.25;44.00;;;;;18.90;66.01;101994.19;5087948;27;45527;-73
2023/07/18 01:45:38;;;;;;;;;42.50;38.25;;;;;18.85;66.91;101993.63;5106240;27;45400;-73
2023/07/18 01:48:03;;;;;;;;;47.00;39.75;;;;;18.83;67.42;101995.53;5116149;27;45506;-73
2023/07/18 01:50:29;;;;;;;;;37.50;34.75;;;;;18.79;67.76;101986.81;5113388;27;45394;-73
2023/07/18 01:52:55;;;;;;;;;35.50;33.75;;;;;18.74;68.15;101991.59;5113859;27;45655;-73
2023/07/18 01:55:20;;;;;;;;;50.00;42.75;;;;;18.65;68.17;101968.91;5115151;27;45367;-73
2023/07/18 01:57:48;;;;;;;;;47.50;40.75;;;;;18.62;68.76;101981.63;5100948;27;48276;-73
2023/07/18 02:00:19;;;;;;;;;53.25;44.75;;;;;18.60;69.08;101971.00;5116709;27;45253;-73
2023/07/18 02:02:48;;;;;;;;;49.00;41.75;;;;;18.51;69.38;101971.59;5104751;27;45229;-73
2023/07/18 02:05:16;;;;;;;;;50.75;43.50;;;;;18.54;69.49;101981.25;5101418;27;45182;-73
2023/07/18 02:07:41;;;;;;;;;51.50;43.25;;;;;18.41;69.58;101962.38;5102271;27;45458;-73
2023/07/18 02:10:07;;;;;;;;;56.25;47.00;;;;;18.48;70.30;101970.88;5101252;27;45278;-73
2023/07/18 02:12:32;;;;;;;;;54.50;46.00;;;;;18.44;70.02;101966.66;5117953;27;45536;-73
2023/07/18 02:14:58;;;;;;;;;55.00;46.00;;;;;18.39;70.25;101963.41;5117070;27;45396;-73
2023/07/18 02:17:23;;;;;;;;;52.33;44.33;;;;;18.26;70.75;101949.06;5094210;27;48020;-73
2023/07/18 02:19:49;;;;;;;;;55.75;46.00;;;;;18.32;70.82;101967.41;5101105;27;45353;-73
2023/07/18 02:22:14;;;;;;;;;52.50;44.50;;;;;18.27;71.11;101956.09;5102133;27;45480;-73
2023/07/18 02:24:40;;;;;;;;;58.50;48.50;;;;;18.27;71.64;101961.47;5102574;27;45313;-73
2023/07/18 02:27:06;;;;;;;;;57.25;47.25;;;;;18.14;71.38;101951.50;5089911;27;47832;-73
2023/07/18 02:29:32;;;;;;;;;55.50;46.75;;;;;18.11;71.52;101943.66;5111278;27;45563;-73
2023/07/18 02:31:57;;;;;;;;;56.25;47.00;;;;;18.19;71.97;101957.44;5112717;27;45484;-73
2023/07/18 02:34:25;;;;;;;;;57.75;48.50;;;;;18.16;72.48;101951.41;5110443;27;45504;-73
2023/07/18 02:36:50;;;;;;;;;52.75;43.50;;;;;18.05;70.91;101936.00;5102465;27;46217;-73
2023/07/18 02:39:16;;;;;;;;;57.75;47.75;;;;;18.11;71.95;101951.69;5100486;27;45208;-73
2023/07/18 02:41:41;;;;;;;;;53.00;45.00;;;;;18.05;70.54;101943.16;5120666;27;45641;-73
2023/07/18 02:44:07;;;;;;;;;58.50;48.50;;;;;18.03;71.71;101934.38;5104881;27;45520;-72
2023/07/18 02:46:32;;;;;;;;;59.00;49.00;;;;;18.01;72.77;101934.47;5113276;27;46089;-72
2023/07/18 02:48:57;;;;;;;;;62.67;52.00;;;;;17.87;71.62;101914.81;5095916;27;45703;-72
2023/07/18 02:51:23;;;;;;;;;55.33;46.67;;;;;17.96;71.66;101939.25;5114350;27;45547;-72
2023/07/18 02:53:51;;;;;;;;;61.33;50.33;;;;;17.96;71.90;101944.59;5111025;27;45339;-73
2023/07/18 02:56:17;;;;;;;;;61.00;50.00;;;;;17.92;71.63;101929.66;5111965;27;45512;-72
2023/07/18 02:58:42;;;;;;;;;58.00;48.33;;;;;17.85;71.67;101928.31;5101915;27;45436;-72
2023/07/18 03:01:08;;;;;;;;;56.67;47.67;;;;;17.90;71.44;101931.53;5121138;27;45330;-72
2023/07/18 03:03:40;;;;;;;;;58.75;49.00;;;;;17.89;71.83;101932.53;5103260;27;45394;-72
2023/07/18 03:06:07;;;;;;;;;64.33;51.33;;;;;17.89;72.62;101937.00;5100673;27;45459;-72
2023/07/18 03:08:33;;;;;;;;;58.00;48.33;;;;;17.89;72.61;101928.97;5103248;27;45605;-73
2023/07/18 03:11:02;;;;;;;;;60.33;50.00;;;;;17.87;73.14;101920.16;5101815;27;45235;-72
2023/07/18 03:13:27;;;;;;;;;56.25;47.25;;;;;17.86;71.96;101919.31;5103454;27;45229;-71
2023/07/18 03:15:54;;;;;;;;;61.00;50.33;;;;;17.84;72.98;101915.00;5108987;27;45557;-71
2023/07/18 03:18:20;;;;;;;;;56.75;47.75;;;;;17.75;72.07;101905.72;5106971;27;45308;-71
2023/07/18 03:20:45;;;;;;;;;62.33;51.67;;;;;17.79;72.94;101911.75;5095571;27;45437;-71
2023/07/18 03:23:11;;;;;;;;;58.50;49.00;;;;;17.76;72.20;101911.94;5117091;27;45471;-71
2023/07/18 03:25:36;;;;;;;;;59.33;49.33;;;;;17.75;72.55;101911.06;5110576;27;45594;-72
2023/07/18 03:28:02;;;;;;;;;54.75;45.50;;;;;17.61;73.35;101894.94;5112989;27;45445;-71
2023/07/18 03:30:28;;;;;;;;;60.60;50.20;;;;;17.57;73.20;101890.75;5108713;27;45283;-72
2023/07/18 03:32:54;;;;;;;;;57.00;47.50;;;;;17.67;72.50;101916.00;5120808;27;45701;-71
2023/07/18 03:35:19;;;;;;;;;57.50;46.75;;;;;17.51;73.38;101901.75;5095574;27;48400;-71
2023/07/18 03:37:45;;;;;;;;;61.67;51.00;;;;;17.61;73.63;101917.22;5099057;27;45412;-71
2023/07/18 03:40:15;;;;;;;;;54.50;45.75;;;;;17.47;73.77;101895.72;5118833;27;45760;-72
2023/07/18 03:42:41;;;;;;;;;57.50;48.00;;;;;17.57;74.35;101914.84;5099579;27;45334;-71
2023/07/18 03:45:09;;;;;;;;;59.25;49.25;;;;;17.54;74.33;101912.28;5106563;27;45845;-72
2023/07/18 03:47:36;;;;;;;;;57.00;47.00;;;;;17.51;75.05;101904.44;5100284;27;45256;-71
2023/07/18 03:50:02;;;;;;;;;59.25;49.25;;;;;17.38;74.34;101890.06;5108711;27;45464;-71
2023/07/18 03:52:28;;;;;;;;;57.00;47.75;;;;;17.39;74.94;101892.66;5114464;27;45507;-71
2023/07/18 03:54:53;;;;;;;;;49.67;41.67;;;;;17.38;74.96;101893.59;5114311;27;47116;-71
2023/07/18 03:57:18;;;;;;;;;48.33;41.33;;;;;17.32;75.42;101885.06;5119422;27;45326;-71
2023/07/18 03:59:44;;;;;;;;;54.75;45.00;;;;;17.37;75.60;101904.41;5112474;27;45330;-72
2023/07/18 04:02:09;;;;;;;;;50.67;43.33;;;;;17.32;75.40;101901.09;5103898;27;45236;-71
2023/07/18 04:04:35;;;;;;;;;53.25;45.25;;;;;17.30;75.66;101887.84;5099101;27;48312;-71
2023/07/18 04:07:00;;;;;;;;;48.67;40.67;;;;;17.28;76.53;101897.75;5106286;27;45389;-71
2023/07/18 04:09:25;;;;;;;;;45.67;39.33;;;;;17.25;76.89;101895.25;5108952;27;45340;-71
2023/07/18 04:11:51;;;;;;;;;47.00;40.67;;;;;17.16;76.84;101885.09;5105714;27;45295;-71
2023/07/18 04:14:16;;;;;;;;;48.00;40.67;;;;;17.21;76.71;101888.38;5107369;27;45344;-71
2023/07/18 04:16:42;;;;;;;;;45.33;39.00;;;;;17.19;77.57;101891.13;5104279;27;45461;-71
2023/07/18 04:19:08;;;;;;;;;47.33;40.33;;;;;17.14;77.73;101882.53;5113347;27;45333;-71
2023/07/18 04:21:34;;;;;;;;;47.67;40.00;;;;;17.16;77.71;101887.78;5103685;27;46037;-71
2023/07/18 04:23:59;;;;;;;;;49.00;42.33;;;;;17.17;77.85;101881.47;5109003;27;45512;-71
2023/07/18 04:26:25;;;;;;;;;50.67;42.67;;;;;17.15;77.52;101872.66;5111610;27;45323;-71
2023/07/18 04:28:51;;;;;;;;;47.67;40.67;;;;;17.16;76.87;101877.06;5107230;27;45438;-71
2023/07/18 04:31:16;;;;;;;;;44.00;38.00;;;;;17.16;77.59;101872.59;5114387;27;45412;-72
2023/07/18 04:33:42;;;;;;;;;47.33;40.67;;;;;17.11;78.39;101855.94;5106412;27;45801;-73
2023/07/18 04:36:07;;;;;;;;;43.00;37.67;;;;;17.09;77.95;101846.28;5106777;27;45401;-73
2023/07/18 04:38:34;;;;;;;;;44.67;39.00;;;;;17.14;77.80;101855.78;5111070;27;45467;-72
2023/07/18 04:41:00;;;;;;;;;51.33;43.00;;;;;17.10;77.05;101858.72;5119005;27;45374;-72
2023/07/18 04:43:25;;;;;;;;;44.67;38.67;;;;;17.15;77.94;101862.84;5112981;27;45995;-72
2023/07/18 04:45:51;;;;;;;;;47.67;39.67;;;;;17.11;77.64;101847.91;5122552;27;45412;-72
2023/07/18 04:48:18;;;;;;;;;51.67;43.00;;;;;17.07;77.02;101838.38;5114632;27;45322;-72
2023/07/18 04:51:03;;;;;;;;;52.75;44.50;;;;;17.22;75.81;101859.81;5103560;27;45290;-72
2023/07/18 04:53:30;;;;;;;;;46.33;39.33;;;;;17.25;74.86;101852.47;5102068;27;45709;-72
2023/07/18 04:55:56;;;;;;;;;51.50;43.25;;;;;17.27;74.19;101844.38;5102206;27;45888;-72
2023/07/18 04:58:24;;;;;;;;;48.33;41.67;;;;;17.35;75.40;101850.13;5110602;27;45194;-72
2023/07/18 05:00:49;;;;;;;;;49.50;41.00;;;;;17.40;75.53;101846.25;5121704;27;45381;-72
2023/07/18 05:03:14;;;;;;;;;52.25;43.50;;;;;17.46;75.95;101847.69;5109794;27;46409;-72
2023/07/18 05:05:40;;;;;;;;;47.50;40.50;;;;;17.41;74.89;101831.91;5122480;27;45370;-72
2023/07/18 05:08:05;;;;;;;;;46.67;40.00;;;;;17.49;76.05;101828.78;5120424;27;45813;-72
2023/07/18 05:10:31;;;;;;;;;38.00;35.00;;;;;17.48;75.42;101811.00;5109966;27;45425;-72
2023/07/18 05:12:57;;;;;;;;;53.50;45.25;;;;;17.57;72.80;101816.69;5101514;27;45753;-73
2023/07/18 05:15:23;;;;;;;;;54.75;46.00;;;;;17.57;74.28;101811.34;5109567;27;45388;-72
2023/07/18 05:17:49;;;;;;;;;50.33;41.00;;;;;17.69;75.02;101821.31;5104435;27;45507;-72
2023/07/18 05:20:15;;;;;;;;;54.25;45.75;;;;;17.68;72.54;101832.09;5114179;27;45589;-72
2023/07/18 05:22:41;;;;;;;;;51.67;44.00;;;;;17.74;73.96;101829.06;5114725;27;45322;-72
2023/07/18 05:25:10;;;;;;;;;58.33;48.33;;;;;17.79;71.85;101826.97;5104884;27;45381;-72
2023/07/18 05:27:35;;;;;;;;;54.00;45.00;;;;;17.88;71.27;101831.75;5097469;27;45396;-72
2023/07/18 05:30:03;;;;;;;;;56.75;47.50;;;;;17.96;72.36;101833.97;5106790;27;45501;-72
2023/07/18 05:32:29;;;;;;;;;49.67;42.00;;;;;18.00;70.31;101822.97;5109716;27;45269;-72
2023/07/18 05:34:55;;;;;;;;;56.75;47.50;;;;;18.09;71.06;101817.06;5117874;27;45570;-72
2023/07/18 05:37:21;;;;;;;;;52.75;44.50;;;;;18.03;71.07;101795.16;5098375;27;45746;-72
2023/07/18 05:39:47;;;;;;;;;50.67;43.33;;;;;18.19;70.93;101812.81;5102011;27;45357;-72
2023/07/18 05:42:12;;;;;;;;;51.50;42.75;;;;;18.26;69.60;101820.50;5116477;27;46103;-73
2023/07/18 05:44:37;;;;;;;;;53.00;43.75;;;;;18.27;70.44;101819.53;5122870;27;45328;-72
2023/07/18 05:47:04;;;;;;;;;50.75;42.75;;;;;18.35;69.74;101826.13;5111974;27;45868;-72
2023/07/18 05:49:29;;;;;;;;;58.00;48.50;;;;;18.44;72.76;101824.69;5101805;27;45309;-72
2023/07/18 05:51:55;;;;;;;;;48.67;41.67;;;;;18.56;70.48;101824.78;5092651;27;47216;-72
2023/07/18 05:54:20;;;;;;;;;43.75;37.25;;;;;18.54;67.85;101815.13;5107907;27;45253;-72
2023/07/18 05:56:46;;;;;;;;;50.25;41.75;;;;;18.72;69.97;101830.00;5105609;27;45381;-72
2023/07/18 05:59:12;;;;;;;;;53.50;45.50;;;;;18.70;70.78;101829.25;5100752;27;45474;-72
2023/07/18 06:01:37;;;;;;;;;52.00;44.00;;;;;18.65;67.15;101828.72;5110624;27;45426;-72
2023/07/18 06:04:03;;;;;;;;;47.75;41.00;;;;;18.69;67.61;101836.44;5102496;27;45400;-72
2023/07/18 06:06:30;;;;;;;;;55.75;46.50;;;;;18.73;71.60;101835.28;5083255;27;45292;-72
2023/07/18 06:08:55;;;;;;;;;49.00;42.00;;;;;18.82;70.63;101838.31;5111658;27;45572;-72
2023/07/18 06:11:21;;;;;;;;;56.75;47.50;;;;;18.94;71.70;101826.81;5101431;27;46309;-72
2023/07/18 06:13:51;;;;;;;;;59.00;49.25;;;;;18.90;65.53;101812.75;5105774;27;45460;-72
2023/07/18 06:16:16;;;;;;;;;56.67;47.67;;;;;19.12;64.77;101831.81;5105800;27;45375;-72
2023/07/18 06:18:42;;;;;;;;;62.75;51.50;;;;;19.22;64.76;101845.47;5116080;27;45353;-72
2023/07/18 06:21:08;;;;;;;;;51.75;44.75;;;;;19.32;64.97;101840.34;5107919;27;46073;-72
2023/07/18 06:23:33;;;;;;;;;60.00;49.67;;;;;19.44;64.53;101845.78;5110895;27;45246;-72
2023/07/18 06:25:59;;;;;;;;;57.25;47.75;;;;;19.58;62.27;101847.53;5102924;27;46080;-72
2023/07/18 06:28:24;;;;;;;;;55.00;46.33;;;;;19.70;61.77;101841.31;5101187;27;45449;-72
2023/07/18 06:30:54;;;;;;;;;60.75;50.75;;;;;19.83;59.42;101834.13;5093084;27;48169;-72
2023/07/18 06:33:21;;;;;;;;;56.25;47.75;;;;;19.96;60.19;101843.03;5100455;27;45416;-71
2023/07/18 06:35:53;;;;;;;;;56.50;47.75;;;;;20.15;62.03;101854.25;5109509;27;45479;-72
2023/07/18 06:38:19;;;;;;;;;62.25;51.75;;;;;20.32;58.83;101845.00;5100983;27;45495;-72
2023/07/18 06:40:49;;;;;;;;;64.50;53.75;;;;;20.39;59.05;101845.41;5112302;27;45490;-72
2023/07/18 06:43:15;;;;;;;;;55.75;47.50;;;;;20.44;56.95;101862.94;5097760;27;45317;-71
2023/07/18 06:45:47;;;;;;;;;95.25;61.00;;;;;20.22;56.13;101831.31;5109464;27;45525;-71
2023/07/18 06:48:13;;;;;;;;;63.75;52.25;;;;;20.50;58.28;101854.44;5104913;27;46909;-72
2023/07/18 06:50:50;;;;;;;;;63.67;53.00;;;;;20.60;57.76;101844.75;5110485;27;45392;-71
2023/07/18 06:53:19;;;;;;;;;50.50;43.25;;;;;20.56;57.58;101815.50;5110351;27;45183;-72
2023/07/18 06:55:46;;;;;;;;;58.00;48.67;;;;;20.57;58.42;101836.91;5106917;27;45663;-72
2023/07/18 06:58:12;;;;;;;;;62.75;50.75;;;;;20.58;58.02;101837.78;5090079;27;45305;-72
2023/07/18 07:00:39;;;;;;;;;57.50;48.75;;;;;20.50;56.10;101840.16;5117637;27;45398;-72
2023/07/18 07:03:04;;;;;;;;;48.25;41.75;;;;;20.52;56.94;101831.00;5109314;27;45335;-72
2023/07/18 07:05:29;;;;;;;;;43.75;38.00;;;;;20.61;56.84;101840.25;5113801;27;45644;-72
2023/07/18 07:07:55;;;;;;;;;44.00;38.50;;;;;20.74;54.71;101866.09;5114837;27;45357;-71
2023/07/18 07:10:21;;;;;;;;;332.00;323.00;;;;;20.73;56.03;101866.22;5113657;27;45275;-72
2023/07/18 07:12:47;;;;;;;;;49.50;42.50;;;;;20.76;55.73;101849.88;5100607;27;45337;-72
2023/07/18 07:15:13;;;;;;;;;43.00;38.33;;;;;20.76;54.65;101860.63;5109536;27;45355;-72
2023/07/18 07:17:39;;;;;;;;;162.33;157.33;;;;;20.74;55.19;101849.97;5095798;27;45238;-72
2023/07/18 07:20:12;;;;;;;;;30.00;29.00;;;;;20.73;54.96;101850.94;5118921;27;45423;-72
2023/07/18 07:22:38;;;;;;;;;38.00;30.75;;;;;20.79;55.07;101863.09;5106491;27;45480;-72
2023/07/18 07:25:04;;;;;;;;;13.50;13.25;;;;;20.81;53.42;101858.44;5101586;27;45334;-75
2023/07/18 07:27:29;;;;;;;;;130.50;125.25;;;;;20.93;54.34;101860.25;5099706;27;45526;-72
2023/07/18 07:29:55;;;;;;;;;34.50;29.25;;;;;21.07;54.45;101867.31;5100507;27;45878;-72
2023/07/18 07:32:20;;;;;;;;;46.75;40.75;;;;;21.28;53.14;101876.47;5119381;27;45434;-72
2023/07/18 07:34:46;;;;;;;;;26.00;26.00;;;;;21.63;55.43;101888.13;5115187;27;45416;-72
2023/07/18 07:37:11;;;;;;;;;24.33;19.00;;;;;21.93;53.07;101827.50;5113169;27;45568;-72
2023/07/18 07:39:36;;;;;;;;;104.00;104.00;;;;;21.90;52.57;101779.28;5114492;27;46090;-73
2023/07/18 07:42:02;;;;;;;;;44.33;31.00;;;;;21.99;52.86;101774.00;5113022;27;46658;-73
2023/07/18 07:44:27;;;;;;;;;63.67;48.00;;;;;21.85;52.12;101760.78;5109354;27;45453;-73
2023/07/18 07:46:55;;;;;;;;;40.00;36.00;;;;;21.78;52.34;101746.94;5100565;27;45394;-73
2023/07/18 07:49:20;;;;;;;;;54.20;43.00;;;;;21.66;52.13;101709.34;5098289;27;46796;-73
2023/07/18 07:51:46;;;;;;;;;63.50;50.25;;;;;21.59;51.43;101679.34;5112609;27;45246;-72
2023/07/18 07:54:11;;;;;;;;;59.75;47.75;;;;;21.57;51.80;101649.00;5116328;27;45330;-72
2023/07/18 07:56:37;;;;;;;;;62.25;48.00;;;;;21.59;52.46;101648.88;5112260;27;45365;-72
2023/07/18 07:59:02;;;;;;;;;60.50;47.25;;;;;21.51;52.16;101659.38;5116021;27;46334;-72
2023/07/18 08:01:28;;;;;;;;;56.67;44.33;;;;;21.47;52.40;101661.47;5115665;27;45465;-73
2023/07/18 08:03:53;;;;;;;;;54.75;41.00;;;;;21.56;52.97;101625.72;5098330;27;45412;-72
2023/07/18 08:06:18;;;;;;;;;62.33;49.67;;;;;21.77;51.09;101601.63;5123173;27;45188;-72
2023/07/18 08:08:44;;;;;;;;;61.25;48.50;;;;;22.11;51.10;101613.22;5099400;27;48186;-72
2023/07/18 08:11:09;;;;;;;;;60.00;50.25;;;;;22.30;50.06;101605.31;5116294;27;45463;-72
2023/07/18 08:13:34;;;;;;;;;60.00;49.25;;;;;22.53;50.67;101619.56;5121549;27;45415;-72
2023/07/18 08:16:00;;;;;;;;;57.25;48.00;;;;;22.71;49.42;101601.84;5104163;27;45323;-72
2023/07/18 08:18:25;;;;;;;;;64.33;52.33;;;;;22.86;49.75;101592.44;5122944;27;45959;-72
2023/07/18 08:20:51;;;;;;;;;72.25;62.00;;;;;23.02;48.94;101587.44;5106311;27;46611;-72
2023/07/18 08:23:16;;;;;;;;;74.25;65.75;;;;;23.23;49.04;101590.94;5112973;27;45332;-72
2023/07/18 08:25:45;;;;;;;;;80.00;72.75;;;;;23.42;48.81;101611.84;5119020;27;45489;-72
2023/07/18 08:28:11;;;;;;;;;102.00;87.40;;;;;23.56;48.09;101627.66;5096751;27;47000;-72
2023/07/18 08:30:39;;;;;;;;;82.75;78.00;;;;;23.67;47.91;101635.66;5119258;27;45202;-72
2023/07/18 08:33:05;;;;;;;;;128.60;95.20;;;;;23.83;47.31;101665.72;5103775;27;45373;-72
2023/07/18 08:35:30;;;;;;;;;91.50;83.25;;;;;23.96;48.23;101673.59;5107685;27;46738;-72
2023/07/18 08:37:55;;;;;;;;;104.50;87.75;;;;;24.05;47.42;101674.63;5104154;27;45997;-72
2023/07/18 08:40:21;;;;;;;;;220.50;64.25;;;;;24.27;45.80;101682.53;5117267;27;45334;-72
2023/07/18 08:42:47;;;;;;;;;86.75;34.25;;;;;24.41;44.80;101692.94;5108902;27;45377;-72
2023/07/18 08:45:14;;;;;;;;;83.50;12.50;;;;;24.42;46.50;101664.03;5123771;27;45309;-72
2023/07/18 08:47:42;;;;;;;;;207.20;58.40;;;;;24.72;47.05;101693.69;5107715;27;47025;-72
2023/07/18 08:50:10;;;;;;;;;184.60;96.00;;;;;24.95;46.20;101697.00;5110501;27;45376;-72
2023/07/18 08:52:36;;;;;;;;;127.75;29.50;;;;;25.10;45.30;101690.13;5105640;27;45354;-72
2023/07/18 08:55:05;;;;;;;;;0.00;0.00;;;;;25.09;44.56;101666.78;5109653;27;45818;-72
2023/07/18 08:57:31;;;;;;;;;0.00;0.00;;;;;25.34;44.42;101694.09;5113004;27;45614;-72
2023/07/18 09:00:01;;;;;;;;;3522.33;3522.33;;;;;25.46;44.49;101697.47;5118820;27;45432;-72
2023/07/18 09:02:27;;;;;;;;;3542.00;3542.00;;;;;25.59;45.04;101698.03;5122944;27;45341;-72
2023/07/18 09:04:52;;;;;;;;;3534.67;3534.67;;;;;25.75;44.48;101703.69;5122969;27;45240;-72
2023/07/18 09:07:19;;;;;;;;;3537.33;3537.33;;;;;25.87;43.41;101710.66;5119327;27;46562;-72
2023/07/18 09:09:48;;;;;;;;;3529.67;3529.67;;;;;25.97;44.63;101707.03;5112163;27;45323;-72
2023/07/18 09:12:15;;;;;;;;;3515.33;3515.33;;;;;26.03;41.92;101695.59;5122107;27;45383;-72
2023/07/18 09:14:40;;;;;;;;;3530.00;3530.00;;;;;25.98;42.14;101687.06;5108958;27;45438;-72
2023/07/18 09:17:07;;;;;;;;;3502.50;3502.50;;;;;26.00;41.71;101685.91;5098016;27;47878;-72
2023/07/18 09:19:40;;;;;;;;;3516.00;3516.00;;;;;25.95;41.24;101684.66;5102240;27;45357;-72
2023/07/18 09:22:18;;;;;;;;;3494.60;3494.60;;;;;25.89;41.00;101681.53;5107924;27;45318;-72
2023/07/18 09:24:44;;;;;;;;;3545.33;3545.33;;;;;25.90;40.22;101676.97;5101695;27;45366;-72
2023/07/18 09:27:15;;;;;;;;;3525.33;3525.33;;;;;25.85;41.07;101666.56;5103958;27;46640;-72
2023/07/18 09:29:45;;;;;;;;;3530.00;3530.00;;;;;26.02;42.62;101680.31;5101289;27;45487;-72
2023/07/18 09:32:17;;;;;;;;;3517.67;3517.67;;;;;26.23;43.18;101676.38;5114038;27;45321;-72
2023/07/18 09:34:54;;;;;;;;;3517.50;3517.50;;;;;26.38;42.01;101673.97;5110113;27;45451;-73
2023/07/18 09:37:19;;;;;;;;;3526.00;3526.00;;;;;26.61;42.36;101675.25;5093292;27;47495;-72
2023/07/18 09:39:46;;;;;;;;;3537.33;3537.33;;;;;26.78;42.23;101666.25;5117909;27;45242;-73
2023/07/18 09:42:12;;;;;;;;;3497.80;3497.80;;;;;26.90;40.73;101665.03;5106642;27;45184;-73
2023/07/18 09:44:39;;;;;;;;;3426.00;3421.60;;;;;26.89;38.98;101641.63;5101797;27;45511;-72
2023/07/18 09:47:06;;;;;;;;;3475.50;3475.50;;;;;27.05;40.57;101656.31;5110189;27;46028;-73
2023/07/18 09:49:33;;;;;;;;;3493.20;3493.20;;;;;27.20;40.25;101650.16;5104410;27;45467;-73
2023/07/18 09:52:05;;;;;;;;;3485.80;3485.80;;;;;27.33;39.46;101645.13;5106356;27;45704;-72
2023/07/18 09:54:32;;;;;;;;;3408.20;3404.80;;;;;27.41;37.67;101650.63;5102251;27;45584;-73
2023/07/18 09:57:10;;;;;;;;;3494.40;3494.40;;;;;27.55;38.07;101638.34;5109637;27;45321;-72
2023/07/18 09:59:39;;;;;;;;;3473.00;3473.00;;;;;27.61;38.30;101639.56;5108022;27;45407;-73
2023/07/18 10:02:08;;;;;;;;;3449.00;3449.00;;;;;27.79;38.68;101641.16;5105845;27;45424;-73
2023/07/18 10:04:34;;;;;;;;;3391.20;3386.00;;;;;27.92;39.56;101636.13;5102236;27;45551;-73
2023/07/18 10:07:01;;;;;;;;;3456.00;3456.00;;;;;28.05;39.41;101642.97;5100883;27;45646;-73
2023/07/18 10:09:30;;;;;;;;;3391.60;3387.60;;;;;28.14;37.79;101628.41;5111811;27;45785;-73
2023/07/18 10:11:58;;;;;;;;;3378.20;3376.20;;;;;28.23;37.24;101638.28;5115289;27;45322;-73
2023/07/18 10:14:27;;;;;;;;;3382.60;3380.60;;;;;28.37;38.02;101626.78;5112847;27;45293;-73
2023/07/18 10:16:59;;;;;;;;;3481.80;3481.80;;;;;28.53;37.49;101612.31;5121516;27;45228;-73
2023/07/18 10:19:25;;;;;;;;;3366.60;3364.20;;;;;28.70;35.96;101617.63;5110942;27;45643;-73
2023/07/18 10:21:56;;;;;;;;;3388.75;3388.25;;;;;28.80;37.74;101606.56;5096570;27;45370;-73
2023/07/18 10:24:23;;;;;;;;;3366.40;3363.80;;;;;29.02;36.69;101608.59;5120240;27;45659;-73
2023/07/18 10:26:55;;;;;;;;;3370.80;3370.60;;;;;29.07;37.06;101603.47;5123200;27;45379;-73
2023/07/18 10:29:21;;;;;;;;;3373.40;3370.80;;;;;29.06;37.75;101599.03;5106813;27;45310;-73
2023/07/18 10:31:47;;;;;;;;;3378.25;3378.25;;;;;29.12;36.24;101595.63;5098146;27;45380;-73
2023/07/18 10:34:15;;;;;;;;;3383.20;3383.20;;;;;29.24;36.08;101596.97;5104993;27;45524;-73
2023/07/18 10:36:54;;;;;;;;;3380.00;3378.80;;;;;29.24;35.04;101585.22;5112513;27;45347;-73
2023/07/18 10:39:38;;;;;;;;;3336.75;3336.75;;;;;29.32;36.10;101571.56;5111933;27;45511;-73
2023/07/18 10:42:19;;;;;;;;;3370.60;3366.80;;;;;29.55;36.19;101577.97;5116714;27;45273;-72
2023/07/18 10:44:45;;;;;;;;;3370.20;3370.20;;;;;29.63;35.42;101552.56;5108719;27;45436;-72
2023/07/18 10:47:18;;;;;;;;;3347.00;3347.00;;;;;29.82;34.82;101557.56;5121419;27;46640;-73
2023/07/18 10:49:45;;;;;;;;;3362.20;3361.40;;;;;29.96;34.95;101565.03;5104791;27;45445;-72
2023/07/18 10:52:11;;;;;;;;;3344.00;3344.00;;;;;30.02;34.36;101553.38;5109689;27;45293;-72
2023/07/18 10:54:36;;;;;;;;;3374.80;3373.20;;;;;30.15;35.46;101553.63;5103436;27;45199;-72
2023/07/18 10:57:03;;;;;;;;;3361.25;3360.75;;;;;30.27;35.01;101549.44;5106512;27;47103;-72
2023/07/18 10:59:28;;;;;;;;;3338.50;3333.75;;;;;30.43;37.33;101541.16;5114289;27;45357;-72
2023/07/18 11:01:58;;;;;;;;;3346.50;3346.50;;;;;30.50;33.40;101534.97;5104671;27;45406;-72